IE-0029 weather

Borris-in-Ossory Airstrip
County Laois, Ireland

Public forecast

Using degrees Celsius for public forecast. Weather courtesy of forecast.io.

Closest aviation weather report (METAR) to Borris-in-Ossory Airstrip

Closest report is Shannon Airport, 48.1 nm (89.0 km) WSW. Retrieved 2020/06/06 03:30 UTC (36 minutes ago):

EINN 060330Z 31014KT 9999 FEW032 08/03 Q1007 NOSIG

Closest aviation forecast (TAF) to Borris-in-Ossory Airstrip

Closest forecast is Shannon Airport, 48.1 nm (89.0 km) WSW. Retrieved 2020-06-06 00:09 UTC (4 hours ago):

TAF EINN 052300Z 0600/0624 31013KT 9999 FEW018 BKN025 BECMG 0604/0606 30017G28KT TEMPO 0606/0616 -RA BKN012 PROB30 TEMPO 0606/0612 5000 BECMG 0616/0618 32014KT PROB30 TEMPO 0616/0624 BKN012